Terminal Aerodrome Forecast
Issued by NWS Cleveland, OH

Home | Current Version | Previous Version | Text Only | Print | Product List | Glossary On
Versions: 1 2 3 4 5 6 7 8 9 10 11 12 13 14 15 16 17 18 19
337
FTUS41 KCLE 201740
TAFTOL
TAF
KTOL 201740Z 2018/2118 VRB04KT 1 1/2SM BR OVC005
      TEMPO 2018/2022 3/4SM BR OVC003
     FM202200 22005KT 3SM BR OVC008
     FM210600 16004KT 1SM BR OVC003
      TEMPO 2106/2110 1/2SM FG OVC001
     FM211000 14004KT 1/2SM FG OVC003
     FM211500 18007KT 5SM BR OVC012=

USA.gov is the U.S. government's official web portal to all federal, state and local government web resources and services.